Time;durP1;ratioP1;P1;durP2;ratioP2;P2;SDS_P1;SDS_P2;PMS_P1;PMS_P2;Temp;Humidity;BMP_temperature;BMP_pressure;BME280_temperature;BME280_humidity;BME280_pressure;Samples;Min_cycle;Max_cycle;Signal;HPM_P1;HPM_P2
2021/12/04 00:00:47;;;;;;;8.90;6.18;;;-0.40;98.80;;;;;;2073165;28;20213;-65
2021/12/04 00:01:49;;;;;;;8.98;5.63;;;-0.40;98.80;;;;;;2073906;28;20181;-64
2021/12/04 00:02:50;;;;;;;8.70;4.93;;;-0.30;99.10;;;;;;2073324;28;20232;-64
2021/12/04 00:03:52;;;;;;;9.73;5.13;;;-0.30;99.10;;;;;;2072988;28;20178;-65
2021/12/04 00:04:55;;;;;;;9.57;5.80;;;-0.30;98.90;;;;;;2073927;28;20190;-64
2021/12/04 00:06:02;;;;;;;10.95;6.45;;;-0.30;98.70;;;;;;2073718;28;20205;-63
2021/12/04 00:07:07;;;;;;;8.90;5.85;;;-0.30;99.00;;;;;;2073732;28;20201;-64
2021/12/04 00:08:07;;;;;;;8.73;6.10;;;-0.40;99.10;;;;;;2073563;28;20190;-63
2021/12/04 00:09:10;;;;;;;8.60;6.00;;;-0.40;99.70;;;;;;2072807;28;20197;-64
2021/12/04 00:10:21;;;;;;;9.20;5.90;;;-0.40;99.90;;;;;;2072453;28;20547;-64
2021/12/04 00:11:21;;;;;;;10.30;6.13;;;-0.40;99.90;;;;;;2073334;28;20202;-64
2021/12/04 00:12:22;;;;;;;9.93;6.10;;;-0.40;99.90;;;;;;2073431;28;20651;-64
2021/12/04 00:13:23;;;;;;;8.20;5.40;;;-0.40;99.90;;;;;;2073391;28;20547;-64
2021/12/04 00:14:24;;;;;;;9.70;6.03;;;-0.40;99.90;;;;;;2073210;28;20182;-64
2021/12/04 00:15:24;;;;;;;8.03;4.93;;;-0.40;99.90;;;;;;2072854;28;20180;-64
2021/12/04 00:16:25;;;;;;;10.13;6.60;;;-0.30;99.90;;;;;;2072550;28;20264;-65
2021/12/04 00:17:27;;;;;;;8.97;5.73;;;-0.30;99.90;;;;;;2073582;28;20236;-64
2021/12/04 00:18:27;;;;;;;9.45;6.43;;;-0.30;99.90;;;;;;2073534;28;20170;-65
2021/12/04 00:19:28;;;;;;;7.40;5.07;;;-0.30;99.90;;;;;;2072849;28;20556;-64
2021/12/04 00:20:30;;;;;;;9.75;5.80;;;-0.20;99.90;;;;;;2064554;28;20181;-64
2021/12/04 00:21:31;;;;;;;9.20;6.28;;;-0.20;99.90;;;;;;2072561;28;20224;-64
2021/12/04 00:22:32;;;;;;;9.57;5.50;;;-0.10;99.90;;;;;;2073556;28;20181;-64
2021/12/04 00:23:32;;;;;;;7.63;4.80;;;-0.10;99.90;;;;;;2072552;28;20185;-64
2021/12/04 00:24:33;;;;;;;10.27;5.77;;;0.00;99.90;;;;;;2072544;28;20236;-64
2021/12/04 00:25:34;;;;;;;7.25;4.82;;;0.00;99.90;;;;;;2073247;28;20198;-64
2021/12/04 00:26:36;;;;;;;8.17;5.50;;;0.00;99.90;;;;;;2073239;28;20240;-64
2021/12/04 00:27:37;;;;;;;7.97;4.90;;;0.10;99.90;;;;;;2073884;28;20422;-64
2021/12/04 00:28:38;;;;;;;6.13;4.28;;;0.20;99.90;;;;;;2073848;28;20215;-64
2021/12/04 00:29:39;;;;;;;6.97;4.75;;;0.20;99.90;;;;;;2073601;28;20600;-65
2021/12/04 00:30:42;;;;;;;8.17;5.60;;;0.20;99.90;;;;;;2073496;28;20273;-65
2021/12/04 00:31:51;;;;;;;7.43;4.90;;;0.20;99.90;;;;;;2073778;28;20178;-65
2021/12/04 00:33:03;;;;;;;7.43;4.60;;;0.30;99.90;;;;;;2073616;28;20189;-65
2021/12/04 00:34:04;;;;;;;7.10;4.63;;;0.30;99.90;;;;;;2073779;28;20182;-65
2021/12/04 00:35:23;;;;;;;8.02;5.35;;;0.30;99.90;;;;;;2073456;28;20187;-65
2021/12/04 00:36:54;;;;;;;8.95;5.05;;;0.40;99.90;;;;;;2073250;28;20671;-65
2021/12/04 00:49:36;;;;;;;5.13;3.38;;;0.70;99.90;;;;;;2073127;28;20181;-66
2021/12/04 00:50:37;;;;;;;5.23;3.53;;;0.70;99.90;;;;;;2073270;28;20629;-63
2021/12/04 00:51:50;;;;;;;7.32;3.05;;;0.80;99.90;;;;;;2072589;28;20174;-64
2021/12/04 00:52:50;;;;;;;7.68;4.10;;;0.80;99.90;;;;;;2066276;28;20175;-64
2021/12/04 00:53:54;;;;;;;9.63;5.67;;;0.80;99.90;;;;;;2072657;28;20173;-66
2021/12/04 00:54:55;;;;;;;11.43;5.70;;;0.80;99.90;;;;;;2072521;28;20261;-63
2021/12/04 00:55:55;;;;;;;7.63;5.30;;;0.80;99.90;;;;;;2072343;28;20698;-64
2021/12/04 00:56:56;;;;;;;7.63;5.07;;;0.80;99.90;;;;;;2073531;28;20231;-64
2021/12/04 00:57:57;;;;;;;11.73;6.57;;;0.80;99.90;;;;;;2073458;28;20260;-63
2021/12/04 00:58:57;;;;;;;8.97;5.07;;;0.80;99.90;;;;;;2073375;28;20710;-64
2021/12/04 00:59:59;;;;;;;7.10;4.23;;;0.80;99.90;;;;;;2073362;28;20181;-64
2021/12/04 01:01:00;;;;;;;7.15;4.38;;;0.80;99.90;;;;;;2073525;28;20202;-64
2021/12/04 01:02:01;;;;;;;6.53;4.30;;;0.80;99.90;;;;;;2073697;28;20274;-64
2021/12/04 01:03:01;;;;;;;6.95;4.80;;;0.80;99.90;;;;;;2073103;28;20185;-64
2021/12/04 01:04:02;;;;;;;6.60;4.50;;;0.80;99.90;;;;;;2072955;28;20593;-64
2021/12/04 01:05:04;;;;;;;5.37;3.10;;;0.90;99.90;;;;;;2073248;28;20191;-64
2021/12/04 01:06:06;;;;;;;3.55;2.10;;;0.90;99.90;;;;;;2072981;28;20183;-65
2021/12/04 01:07:08;;;;;;;4.38;2.80;;;1.00;99.90;;;;;;2073485;28;20233;-63
2021/12/04 01:08:09;;;;;;;8.60;5.50;;;1.00;99.90;;;;;;2073288;28;20224;-64
2021/12/04 01:09:13;;;;;;;6.37;4.33;;;0.90;99.90;;;;;;2073345;28;20616;-64
2021/12/04 01:10:13;;;;;;;5.32;3.67;;;0.90;99.90;;;;;;2072474;28;20182;-64
2021/12/04 01:11:14;;;;;;;4.17;2.77;;;0.90;99.90;;;;;;2072812;28;20251;-65
2021/12/04 01:12:16;;;;;;;4.13;2.77;;;0.90;99.90;;;;;;2072607;28;20256;-63
2021/12/04 01:13:16;;;;;;;4.80;2.83;;;0.90;99.90;;;;;;2072894;28;20176;-64
2021/12/04 01:14:26;;;;;;;4.07;2.77;;;1.00;99.90;;;;;;2073436;28;20201;-64
2021/12/04 01:15:28;;;;;;;7.00;3.45;;;1.00;99.90;;;;;;2073572;28;20226;-64
2021/12/04 01:16:29;;;;;;;5.28;3.65;;;1.00;99.90;;;;;;2072666;28;20182;-64
2021/12/04 01:17:29;;;;;;;6.87;3.13;;;1.00;99.90;;;;;;2064652;28;20194;-64
2021/12/04 01:18:30;;;;;;;7.10;3.73;;;1.00;99.90;;;;;;2072887;28;20197;-68
2021/12/04 01:19:31;;;;;;;3.40;2.33;;;1.00;99.90;;;;;;2073488;28;20186;-65
2021/12/04 01:20:32;;;;;;;3.47;2.33;;;1.00;99.90;;;;;;2073319;28;20686;-64
2021/12/04 01:21:33;;;;;;;5.03;3.23;;;1.00;99.90;;;;;;2073005;28;20186;-64
2021/12/04 01:22:34;;;;;;;4.30;2.90;;;1.00;99.90;;;;;;2072764;28;20587;-64
2021/12/04 01:23:35;;;;;;;2.97;2.10;;;1.00;99.90;;;;;;2073516;28;20188;-64
2021/12/04 01:24:35;;;;;;;3.77;2.30;;;1.10;99.90;;;;;;2073497;28;20206;-63
2021/12/04 01:25:37;;;;;;;3.03;1.97;;;1.10;99.90;;;;;;2073388;28;20635;-64
2021/12/04 01:26:39;;;;;;;3.90;2.40;;;1.10;99.90;;;;;;2073471;28;20568;-64
2021/12/04 01:27:42;;;;;;;2.85;2.08;;;1.10;99.90;;;;;;2074206;28;20652;-64
2021/12/04 01:28:42;;;;;;;5.30;3.88;;;1.10;99.90;;;;;;2074859;28;20178;-64
2021/12/04 01:29:43;;;;;;;3.27;1.90;;;1.10;99.90;;;;;;2074601;28;20183;-64
2021/12/04 01:30:44;;;;;;;2.17;1.60;;;1.00;99.90;;;;;;2074870;28;20547;-63
2021/12/04 01:31:45;;;;;;;2.60;1.70;;;1.00;99.90;;;;;;2074651;28;20209;-64
2021/12/04 01:32:46;;;;;;;2.20;1.50;;;1.10;99.90;;;;;;2074419;28;20232;-64
2021/12/04 01:33:47;;;;;;;2.70;1.90;;;1.10;99.90;;;;;;2066029;28;20217;-64
2021/12/04 01:34:48;;;;;;;3.63;1.90;;;1.10;99.90;;;;;;2066446;28;20618;-64
2021/12/04 01:35:49;;;;;;;2.83;2.13;;;1.10;99.90;;;;;;2074256;28;20221;-64
2021/12/04 01:36:50;;;;;;;3.43;2.10;;;1.10;99.90;;;;;;2074724;28;20244;-64
2021/12/04 01:37:50;;;;;;;3.00;2.35;;;1.10;99.90;;;;;;2074760;28;20268;-64
2021/12/04 01:38:52;;;;;;;2.17;1.73;;;1.10;99.90;;;;;;2074872;28;20867;-65
2021/12/04 01:39:52;;;;;;;2.50;1.98;;;1.00;99.90;;;;;;2074351;28;20266;-64
2021/12/04 01:40:53;;;;;;;3.37;2.00;;;1.00;99.90;;;;;;2074328;28;20556;-64
2021/12/04 01:41:54;;;;;;;2.10;1.40;;;1.00;99.90;;;;;;2073748;28;20182;-64
2021/12/04 01:42:54;;;;;;;2.60;1.67;;;1.10;99.90;;;;;;2057585;28;20245;-64
2021/12/04 01:43:59;;;;;;;2.50;1.60;;;1.10;99.90;;;;;;2065563;28;20191;-65
2021/12/04 01:45:00;;;;;;;2.92;1.42;;;1.10;99.90;;;;;;2074438;28;20196;-65
2021/12/04 01:46:00;;;;;;;3.67;1.87;;;1.10;99.90;;;;;;2074471;28;20691;-64
2021/12/04 01:47:11;;;;;;;1.73;1.37;;;1.10;99.90;;;;;;2074469;28;20528;-64
2021/12/04 01:48:12;;;;;;;1.88;1.58;;;1.20;99.90;;;;;;2065834;28;20234;-63
2021/12/04 01:49:13;;;;;;;2.20;1.57;;;1.20;99.90;;;;;;2065773;28;20228;-64
2021/12/04 01:50:14;;;;;;;3.03;1.80;;;1.20;99.90;;;;;;2074145;28;20236;-64
2021/12/04 01:51:14;;;;;;;2.47;1.80;;;1.20;99.90;;;;;;2074265;28;20197;-64
2021/12/04 01:52:17;;;;;;;3.00;2.20;;;1.10;99.90;;;;;;2074354;28;20174;-64
2021/12/04 01:53:19;;;;;;;3.00;1.88;;;1.00;99.90;;;;;;2073644;28;20176;-65
2021/12/04 01:54:21;;;;;;;3.28;2.22;;;1.00;99.90;;;;;;2073496;28;20710;-65
2021/12/04 01:55:26;;;;;;;3.53;1.95;;;1.00;99.90;;;;;;2073877;28;20181;-65
2021/12/04 01:56:31;;;;;;;1.83;1.30;;;1.00;99.90;;;;;;2066186;28;20675;-65
2021/12/04 01:57:32;;;;;;;2.20;1.55;;;1.10;99.90;;;;;;2073908;28;20237;-65
2021/12/04 01:58:33;;;;;;;2.97;1.73;;;1.10;99.90;;;;;;2074224;28;20651;-64
2021/12/04 01:59:34;;;;;;;1.40;1.13;;;1.10;99.90;;;;;;2074173;28;20257;-65
2021/12/04 02:00:40;;;;;;;2.87;2.10;;;1.10;99.90;;;;;;2074118;28;20240;-64
2021/12/04 02:01:41;;;;;;;1.77;1.50;;;1.10;99.90;;;;;;2074326;28;20226;-64
2021/12/04 02:02:41;;;;;;;2.40;1.60;;;1.20;99.90;;;;;;2074196;28;20194;-64
2021/12/04 02:03:42;;;;;;;4.60;1.20;;;1.20;99.90;;;;;;2074262;28;20212;-65
2021/12/04 02:04:43;;;;;;;1.33;1.00;;;1.20;99.90;;;;;;2074118;28;20265;-65
2021/12/04 02:05:46;;;;;;;2.17;1.42;;;1.20;99.90;;;;;;2074165;28;20201;-65
2021/12/04 02:06:46;;;;;;;1.88;1.35;;;1.20;99.90;;;;;;2073536;28;20212;-65
2021/12/04 02:07:47;;;;;;;2.57;1.50;;;1.30;99.90;;;;;;2073645;28;20182;-64
2021/12/04 02:08:48;;;;;;;1.83;1.30;;;1.30;99.90;;;;;;2074083;28;20182;-64
2021/12/04 02:09:49;;;;;;;1.37;1.20;;;1.30;99.90;;;;;;2073885;28;20163;-65
2021/12/04 02:10:54;;;;;;;1.87;1.30;;;1.30;99.90;;;;;;2074161;28;20228;-65
2021/12/04 02:11:55;;;;;;;1.50;1.10;;;1.30;99.90;;;;;;2074271;28;20166;-64
2021/12/04 02:12:55;;;;;;;1.57;0.90;;;1.30;99.90;;;;;;2074138;28;20739;-64
2021/12/04 02:13:56;;;;;;;1.50;0.70;;;1.40;99.90;;;;;;2074262;28;20286;-65
2021/12/04 02:14:57;;;;;;;1.10;0.93;;;1.50;99.90;;;;;;2074062;28;20652;-64
2021/12/04 02:16:01;;;;;;;1.10;0.87;;;1.60;99.90;;;;;;2074021;28;20232;-64
2021/12/04 02:17:03;;;;;;;1.70;1.13;;;1.60;99.90;;;;;;2074159;28;20552;-65
2021/12/04 02:18:06;;;;;;;1.48;1.17;;;1.50;99.90;;;;;;2073574;28;20244;-65
2021/12/04 02:19:07;;;;;;;1.50;0.80;;;1.50;99.90;;;;;;2073549;28;20240;-65
2021/12/04 02:20:11;;;;;;;0.80;0.73;;;1.50;99.90;;;;;;2073287;28;20220;-65
2021/12/04 02:21:14;;;;;;;1.20;0.75;;;1.60;99.90;;;;;;2073444;28;20205;-64
2021/12/04 02:22:15;;;;;;;0.65;0.60;;;1.60;99.90;;;;;;2074185;28;20317;-65
2021/12/04 02:23:16;;;;;;;1.15;0.80;;;1.60;99.90;;;;;;2073386;28;20185;-64
2021/12/04 02:24:17;;;;;;;0.70;0.70;;;1.70;99.90;;;;;;2073515;28;20186;-65
2021/12/04 02:25:18;;;;;;;0.47;0.47;;;1.70;99.90;;;;;;2074100;28;20765;-65
2021/12/04 02:26:19;;;;;;;0.63;0.43;;;1.70;99.90;;;;;;2073954;28;20167;-64
2021/12/04 02:27:19;;;;;;;0.47;0.30;;;1.70;99.90;;;;;;2074037;28;20595;-64
2021/12/04 02:28:20;;;;;;;0.53;0.50;;;1.80;99.90;;;;;;2074197;28;20203;-65
2021/12/04 02:29:21;;;;;;;0.67;0.43;;;1.80;99.90;;;;;;2073452;28;20208;-65
2021/12/04 02:30:27;;;;;;;0.43;0.43;;;1.80;99.90;;;;;;2073302;28;20552;-65
2021/12/04 02:31:28;;;;;;;0.50;0.47;;;1.90;99.90;;;;;;2073986;28;20166;-66
2021/12/04 02:32:30;;;;;;;0.30;0.30;;;1.90;99.90;;;;;;2074073;28;20178;-65
2021/12/04 02:33:31;;;;;;;0.70;0.63;;;1.90;99.90;;;;;;2073399;28;20808;-65
2021/12/04 02:34:32;;;;;;;0.60;0.47;;;1.90;99.90;;;;;;2073457;28;20183;-65
2021/12/04 02:35:32;;;;;;;0.23;0.23;;;2.00;99.90;;;;;;2073967;28;20546;-65
2021/12/04 02:36:33;;;;;;;0.40;0.40;;;2.00;99.90;;;;;;2074111;28;20205;-65
2021/12/04 02:37:36;;;;;;;0.30;0.30;;;2.00;99.90;;;;;;2073297;28;20222;-65
2021/12/04 02:38:37;;;;;;;0.20;0.20;;;2.10;99.90;;;;;;2073454;28;20178;-66
2021/12/04 02:39:43;;;;;;;0.30;0.30;;;2.20;99.90;;;;;;2073117;28;20556;-64
2021/12/04 02:40:46;;;;;;;0.57;0.30;;;2.20;99.90;;;;;;2073384;28;20274;-65
2021/12/04 02:41:46;;;;;;;2.20;0.38;;;2.20;99.90;;;;;;2066239;28;20196;-65
2021/12/04 02:42:48;;;;;;;1.30;0.40;;;2.20;99.90;;;;;;2073361;28;20794;-65
2021/12/04 02:43:49;;;;;;;0.20;0.20;;;2.20;99.90;;;;;;2074000;28;20184;-65
2021/12/04 02:44:50;;;;;;;0.32;0.30;;;2.20;99.90;;;;;;2073916;28;20694;-64
2021/12/04 02:45:51;;;;;;;0.13;0.13;;;2.20;99.90;;;;;;2073298;28;20284;-65
2021/12/04 02:46:52;;;;;;;0.30;0.30;;;2.20;99.90;;;;;;2065168;28;20376;-65
2021/12/04 02:47:52;;;;;;;0.40;0.40;;;2.20;99.90;;;;;;2073310;28;20239;-65
2021/12/04 02:48:53;;;;;;;0.30;0.30;;;2.30;99.90;;;;;;2073406;28;20195;-65
2021/12/04 02:49:55;;;;;;;0.20;0.20;;;2.30;99.90;;;;;;2073178;28;20292;-65
2021/12/04 02:50:56;;;;;;;0.30;0.30;;;2.30;99.90;;;;;;2074156;28;20201;-65
2021/12/04 02:52:03;;;;;;;0.23;0.23;;;2.30;99.90;;;;;;2073609;28;20188;-66
2021/12/04 02:53:04;;;;;;;0.55;0.35;;;2.30;99.90;;;;;;2073210;28;20623;-65
2021/12/04 02:54:06;;;;;;;0.33;0.20;;;2.30;99.90;;;;;;2073171;28;20265;-65
2021/12/04 02:55:08;;;;;;;0.30;0.30;;;2.30;99.90;;;;;;2073292;28;20510;-65
2021/12/04 02:56:10;;;;;;;0.30;0.30;;;2.30;99.90;;;;;;2065328;28;20181;-64
2021/12/04 02:57:14;;;;;;;0.47;0.47;;;2.30;99.90;;;;;;2073397;28;20334;-67
2021/12/04 02:58:16;;;;;;;0.17;0.10;;;2.40;99.90;;;;;;2073221;28;20184;-66
2021/12/04 02:59:17;;;;;;;0.10;0.10;;;2.40;99.90;;;;;;2073442;28;20192;-66
2021/12/04 03:00:23;;;;;;;0.50;0.50;;;2.40;99.90;;;;;;2073955;28;20184;-66
2021/12/04 03:01:24;;;;;;;0.50;0.50;;;2.50;99.90;;;;;;2073281;28;20195;-67
2021/12/04 03:02:25;;;;;;;0.27;0.27;;;2.50;99.90;;;;;;2065262;28;20191;-66
2021/12/04 03:03:26;;;;;;;0.20;0.20;;;2.50;99.90;;;;;;2073307;28;20186;-67
2021/12/04 03:04:28;;;;;;;0.30;0.30;;;2.50;99.90;;;;;;2074040;28;20176;-66
2021/12/04 03:05:29;;;;;;;0.20;0.20;;;2.60;99.90;;;;;;2073783;28;20645;-66
2021/12/04 03:06:30;;;;;;;0.20;0.20;;;2.60;99.90;;;;;;2074062;28;20209;-65
2021/12/04 03:07:31;;;;;;;0.27;0.23;;;2.60;99.90;;;;;;2073209;28;20896;-66
2021/12/04 03:08:31;;;;;;;0.30;0.30;;;2.60;99.90;;;;;;2073339;28;20188;-66
2021/12/04 03:09:32;;;;;;;1.50;0.70;;;2.70;99.90;;;;;;2073565;28;20252;-66
2021/12/04 03:10:34;;;;;;;0.87;0.67;;;2.70;99.90;;;;;;2073685;28;20184;-66
2021/12/04 03:11:35;;;;;;;0.73;0.70;;;2.70;99.90;;;;;;2073221;28;20670;-66
2021/12/04 03:12:37;;;;;;;1.83;0.98;;;2.70;99.90;;;;;;2073181;28;20684;-66
2021/12/04 03:13:38;;;;;;;0.93;0.70;;;2.70;99.90;;;;;;2065223;28;20177;-66
2021/12/04 03:14:39;;;;;;;2.43;1.17;;;2.70;99.90;;;;;;2073041;28;20180;-66
2021/12/04 03:15:45;;;;;;;1.75;0.70;;;2.70;99.90;;;;;;2073718;28;20649;-66
2021/12/04 03:16:45;;;;;;;1.13;0.73;;;2.80;99.90;;;;;;2073944;28;20180;-66
2021/12/04 03:17:46;;;;;;;0.53;0.50;;;2.80;99.90;;;;;;2073773;28;20183;-66
2021/12/04 03:18:47;;;;;;;0.50;0.50;;;2.80;99.90;;;;;;2073243;28;20248;-66
2021/12/04 03:19:53;;;;;;;4.60;0.20;;;2.80;99.90;;;;;;2072868;28;20259;-66
2021/12/04 03:20:56;;;;;;;0.10;0.10;;;2.80;99.90;;;;;;2073189;28;20231;-66
2021/12/04 03:21:57;;;;;;;0.10;0.10;;;2.80;99.90;;;;;;2072908;28;20200;-66
2021/12/04 03:23:02;;;;;;;0.20;0.20;;;2.90;99.90;;;;;;2073688;28;20189;-65
2021/12/04 03:24:06;;;;;;;0.20;0.20;;;2.80;99.90;;;;;;2073234;28;20510;-65
2021/12/04 03:25:08;;;;;;;0.20;0.20;;;2.80;99.90;;;;;;2066111;28;20184;-65
2021/12/04 03:26:10;;;;;;;0.10;0.10;;;2.80;99.90;;;;;;2065364;28;20189;-66
2021/12/04 03:27:12;;;;;;;0.25;0.25;;;2.90;99.90;;;;;;2073179;28;20172;-65
2021/12/04 03:28:15;;;;;;;0.10;0.10;;;2.90;99.90;;;;;;2073767;28;20257;-66
2021/12/04 03:29:20;;;;;;;0.32;0.20;;;2.80;99.90;;;;;;2073784;28;20299;-66
2021/12/04 03:30:41;;;;;;;0.25;0.10;;;2.80;99.90;;;;;;2073507;28;20172;-65
2021/12/04 03:32:06;;;;;;;0.20;0.20;;;2.90;99.90;;;;;;2073104;28;20699;-66
2021/12/04 03:41:44;;;;;;;0.00;0.00;;;3.20;99.90;;;;;;2073766;28;20181;-66
2021/12/04 03:42:45;;;;;;;0.10;0.10;;;3.20;99.90;;;;;;2073650;28;20183;-65
2021/12/04 03:43:46;;;;;;;0.10;0.10;;;3.20;99.90;;;;;;2073574;28;20547;-65
2021/12/04 03:44:47;;;;;;;0.10;0.10;;;3.30;99.90;;;;;;2073775;28;20272;-66
2021/12/04 03:45:53;;;;;;;0.20;0.10;;;3.40;99.90;;;;;;2072982;28;20208;-66
2021/12/04 03:46:54;;;;;;;0.20;0.20;;;3.40;99.90;;;;;;2073103;28;20184;-66
2021/12/04 03:48:04;;;;;;;0.10;0.10;;;3.40;99.90;;;;;;2073585;28;20673;-66
2021/12/04 03:49:05;;;;;;;2.58;0.20;;;3.40;99.90;;;;;;2073081;28;20186;-66
2021/12/04 03:50:07;;;;;;;0.30;0.20;;;3.50;99.90;;;;;;2072797;28;20664;-66
2021/12/04 03:51:08;;;;;;;0.20;0.20;;;3.60;99.90;;;;;;2071968;28;20280;-66
2021/12/04 03:52:09;;;;;;;0.10;0.10;;;3.60;99.90;;;;;;2072951;28;20190;-66
2021/12/04 03:53:10;;;;;;;0.10;0.10;;;3.60;99.90;;;;;;2073008;28;20173;-66
2021/12/04 03:54:11;;;;;;;0.10;0.10;;;3.60;99.90;;;;;;2072967;28;20181;-66
2021/12/04 03:55:12;;;;;;;0.10;0.10;;;3.60;99.90;;;;;;2072934;28;20268;-66
2021/12/04 03:56:15;;;;;;;0.10;0.10;;;3.70;99.90;;;;;;2064859;28;20322;-66
2021/12/04 03:57:16;;;;;;;0.00;0.00;;;3.60;99.90;;;;;;2073138;28;20280;-66
2021/12/04 03:58:21;;;;;;;0.50;0.10;;;3.70;99.90;;;;;;2073558;28;20196;-66
2021/12/04 03:59:22;;;;;;;0.25;0.10;;;3.70;99.90;;;;;;2073006;28;20267;-66
2021/12/04 04:00:28;;;;;;;0.10;0.10;;;3.70;99.90;;;;;;2072617;28;20245;-66
2021/12/04 04:01:29;;;;;;;1.65;0.20;;;3.70;99.90;;;;;;2073653;28;20161;-66
2021/12/04 04:02:29;;;;;;;0.10;0.10;;;3.70;99.90;;;;;;2073565;28;20255;-66
2021/12/04 04:03:30;;;;;;;0.73;0.20;;;3.70;99.90;;;;;;2073013;28;20272;-66
2021/12/04 04:04:31;;;;;;;0.00;0.00;;;3.60;99.90;;;;;;2072977;28;20610;-66
2021/12/04 04:05:31;;;;;;;0.20;0.20;;;3.70;99.90;;;;;;2072923;28;20310;-66
2021/12/04 04:06:33;;;;;;;0.10;0.10;;;3.70;99.90;;;;;;2073409;28;20181;-66
2021/12/04 04:07:34;;;;;;;0.10;0.10;;;3.80;99.90;;;;;;2073673;28;20192;-66
2021/12/04 04:08:34;;;;;;;0.10;0.10;;;3.80;99.90;;;;;;2073435;28;20680;-66
2021/12/04 04:09:36;;;;;;;0.10;0.10;;;3.80;99.90;;;;;;2073270;28;20192;-66
2021/12/04 04:10:37;;;;;;;0.20;0.20;;;3.80;99.90;;;;;;2072681;28;20182;-66
2021/12/04 04:11:38;;;;;;;0.20;0.20;;;3.90;99.90;;;;;;2072933;28;20215;-65
2021/12/04 04:12:38;;;;;;;0.20;0.20;;;3.90;99.90;;;;;;2072917;28;20831;-66
2021/12/04 04:13:43;;;;;;;0.77;0.20;;;3.90;99.90;;;;;;2073556;28;20267;-67
2021/12/04 04:14:43;;;;;;;0.38;0.30;;;3.80;99.90;;;;;;2072687;28;20187;-66
2021/12/04 04:15:44;;;;;;;0.23;0.10;;;3.90;99.90;;;;;;2072811;28;20181;-66
2021/12/04 04:16:45;;;;;;;0.20;0.20;;;3.80;99.90;;;;;;2073432;28;20184;-66
2021/12/04 04:17:46;;;;;;;1.50;0.30;;;3.80;99.90;;;;;;2072799;28;20557;-66
2021/12/04 04:18:47;;;;;;;0.20;0.20;;;3.70;99.90;;;;;;2072833;28;20199;-66
2021/12/04 04:19:48;;;;;;;0.33;0.27;;;3.80;99.90;;;;;;2072553;28;20199;-66
2021/12/04 04:20:48;;;;;;;0.20;0.20;;;3.80;99.90;;;;;;2072816;28;20208;-66
2021/12/04 04:21:55;;;;;;;0.10;0.10;;;3.70;99.90;;;;;;2072746;28;20185;-66
2021/12/04 04:22:56;;;;;;;0.17;0.15;;;3.70;99.90;;;;;;2072952;28;20704;-66
2021/12/04 04:23:56;;;;;;;0.30;0.30;;;3.70;99.90;;;;;;2073400;28;20239;-66
2021/12/04 04:24:57;;;;;;;0.50;0.20;;;3.80;99.90;;;;;;2073333;28;20189;-66
2021/12/04 04:25:58;;;;;;;0.10;0.10;;;3.80;99.90;;;;;;2073272;28;20204;-66
2021/12/04 04:26:58;;;;;;;0.10;0.10;;;3.80;99.90;;;;;;2073515;28;20586;-66
2021/12/04 04:27:59;;;;;;;0.10;0.10;;;3.80;99.90;;;;;;2073279;28;20170;-66
2021/12/04 04:29:00;;;;;;;0.10;0.10;;;3.90;99.90;;;;;;2073459;28;20750;-66
2021/12/04 04:30:04;;;;;;;0.10;0.10;;;3.90;99.90;;;;;;2073052;28;20177;-66
2021/12/04 04:31:05;;;;;;;0.10;0.10;;;3.90;99.90;;;;;;2072714;28;20699;-65
2021/12/04 04:32:06;;;;;;;0.10;0.10;;;3.90;99.90;;;;;;2072798;28;20181;-67
2021/12/04 04:33:11;;;;;;;0.10;0.10;;;3.90;99.90;;;;;;2073682;28;20182;-66
2021/12/04 04:34:22;;;;;;;1.90;0.20;;;3.80;99.90;;;;;;2072661;28;20240;-66
2021/12/04 04:35:26;;;;;;;0.20;0.20;;;3.90;99.90;;;;;;2072755;28;20511;-65
2021/12/04 05:02:25;;;;;;;0.60;0.52;;;2.30;99.90;;;;;;2071639;28;20231;-66
2021/12/04 05:11:57;;;;;;;0.50;0.50;;;2.00;99.90;;;;;;2072446;28;20195;-66
2021/12/04 05:13:02;;;;;;;0.47;0.47;;;2.00;99.90;;;;;;2067712;28;20177;-66
2021/12/04 05:14:05;;;;;;;0.40;0.40;;;2.00;99.90;;;;;;2064849;28;20184;-66
2021/12/04 05:15:13;;;;;;;0.52;0.50;;;2.00;99.90;;;;;;2064799;28;20282;-66
2021/12/04 05:16:19;;;;;;;0.60;0.55;;;2.10;99.90;;;;;;2064920;28;20189;-65
2021/12/04 05:18:50;;;;;;;0.70;0.65;;;2.20;99.90;;;;;;2072165;28;20184;-67
2021/12/04 05:19:54;;;;;;;0.50;0.50;;;2.10;99.90;;;;;;2067849;28;20174;-66
2021/12/04 05:21:05;;;;;;;0.93;0.68;;;2.20;99.90;;;;;;2072370;28;20196;-67
2021/12/04 05:22:08;;;;;;;0.60;0.60;;;2.10;99.90;;;;;;2072993;28;20185;-66
2021/12/04 05:23:10;;;;;;;0.57;0.57;;;2.20;99.90;;;;;;2072262;28;20264;-66
2021/12/04 05:24:11;;;;;;;0.52;0.45;;;2.30;99.90;;;;;;2064201;28;20220;-66
2021/12/04 05:25:11;;;;;;;0.60;0.60;;;2.70;99.90;;;;;;2072275;28;20181;-66
2021/12/04 05:26:28;;;;;;;0.93;0.73;;;2.80;99.90;;;;;;2072877;28;20180;-66
2021/12/04 05:27:28;;;;;;;0.50;0.50;;;2.90;99.90;;;;;;2073084;28;20165;-66
2021/12/04 05:28:29;;;;;;;0.53;0.53;;;2.80;99.90;;;;;;2072845;28;20192;-66
2021/12/04 05:29:30;;;;;;;0.70;0.50;;;2.80;99.90;;;;;;2072825;28;20612;-65
2021/12/04 05:30:31;;;;;;;0.80;0.50;;;2.80;99.90;;;;;;2072561;28;20192;-66
2021/12/04 05:31:32;;;;;;;1.48;0.50;;;2.80;99.90;;;;;;2072364;28;20184;-66
2021/12/04 05:32:33;;;;;;;0.40;0.40;;;2.80;99.90;;;;;;2072256;28;20185;-66
2021/12/04 05:33:34;;;;;;;0.67;0.57;;;2.80;99.90;;;;;;2072889;28;20275;-66
2021/12/04 05:34:35;;;;;;;0.60;0.60;;;2.80;99.90;;;;;;2072706;28;20185;-66
2021/12/04 05:35:36;;;;;;;0.70;0.60;;;2.80;99.90;;;;;;2072919;28;20190;-66
2021/12/04 05:36:37;;;;;;;0.70;0.70;;;2.90;99.90;;;;;;2072210;28;20238;-65
2021/12/04 05:37:37;;;;;;;0.73;0.70;;;2.90;99.90;;;;;;2072312;28;20184;-66
2021/12/04 05:38:38;;;;;;;0.70;0.70;;;2.90;99.90;;;;;;2072830;28;20208;-67
2021/12/04 05:39:39;;;;;;;0.50;0.40;;;3.00;99.90;;;;;;2072579;28;20184;-66
2021/12/04 05:40:40;;;;;;;0.40;0.40;;;3.10;99.90;;;;;;2072693;28;20189;-66
2021/12/04 05:41:41;;;;;;;0.60;0.53;;;3.10;99.90;;;;;;2072876;28;20181;-65
2021/12/04 05:42:42;;;;;;;0.55;0.52;;;3.20;99.90;;;;;;2072284;28;20356;-66
2021/12/04 05:43:43;;;;;;;0.30;0.30;;;3.20;99.90;;;;;;2072179;28;20549;-66
2021/12/04 05:44:44;;;;;;;0.40;0.40;;;3.30;99.90;;;;;;2072168;28;20216;-66
2021/12/04 05:45:50;;;;;;;0.20;0.20;;;3.40;99.90;;;;;;2072159;28;20216;-66
2021/12/04 05:47:08;;;;;;;0.30;0.30;;;3.60;99.90;;;;;;2072789;28;20201;-66
2021/12/04 05:48:16;;;;;;;0.30;0.30;;;3.70;99.90;;;;;;2072871;28;20165;-66
2021/12/04 05:49:24;;;;;;;0.20;0.20;;;3.90;99.90;;;;;;2072852;28;20174;-66
2021/12/04 05:56:09;;;;;;;0.90;0.30;;;4.30;99.90;;;;;;2072422;28;20252;-66
2021/12/04 05:57:11;;;;;;;0.38;0.30;;;4.30;99.90;;;;;;2072103;28;20637;-66
2021/12/04 05:58:12;;;;;;;0.30;0.30;;;4.40;99.90;;;;;;2072168;28;20740;-66
2021/12/04 05:59:13;;;;;;;0.27;0.27;;;4.50;99.90;;;;;;2072763;28;20173;-66
2021/12/04 06:00:18;;;;;;;0.20;0.20;;;4.50;99.90;;;;;;2072660;28;20190;-66
2021/12/04 06:01:22;;;;;;;0.20;0.20;;;4.50;99.90;;;;;;2072717;28;20197;-66
2021/12/04 06:02:22;;;;;;;0.47;0.32;;;4.50;99.90;;;;;;2072193;28;20688;-65
2021/12/04 06:03:24;;;;;;;0.33;0.33;;;4.50;99.90;;;;;;2072107;28;20189;-65
2021/12/04 06:04:25;;;;;;;0.63;0.20;;;4.60;99.90;;;;;;2072771;28;20214;-66
2021/12/04 06:05:26;;;;;;;0.57;0.40;;;4.60;99.90;;;;;;2072679;28;20209;-66
2021/12/04 06:06:27;;;;;;;0.40;0.40;;;4.60;99.90;;;;;;2072724;28;20173;-66
2021/12/04 06:07:28;;;;;;;0.20;0.20;;;4.60;99.90;;;;;;2072741;28;20173;-66
2021/12/04 06:08:29;;;;;;;0.70;0.60;;;4.60;99.90;;;;;;2072875;28;20685;-66
2021/12/04 06:09:29;;;;;;;0.40;0.40;;;4.50;99.90;;;;;;2073994;28;20186;-65
2021/12/04 06:10:30;;;;;;;0.67;0.30;;;4.50;99.90;;;;;;2073017;28;20182;-66
2021/12/04 06:11:32;;;;;;;0.30;0.23;;;4.50;99.90;;;;;;2073058;28;20206;-66
2021/12/04 06:12:33;;;;;;;0.30;0.30;;;4.60;99.90;;;;;;2074357;28;20174;-66
2021/12/04 06:13:34;;;;;;;0.30;0.30;;;4.60;99.90;;;;;;2073552;28;20202;-66
2021/12/04 06:14:35;;;;;;;0.22;0.22;;;4.70;99.90;;;;;;2073849;28;20197;-66
2021/12/04 06:15:36;;;;;;;0.50;0.40;;;4.70;99.90;;;;;;2073493;28;20286;-65
2021/12/04 06:16:37;;;;;;;0.30;0.30;;;4.70;99.90;;;;;;2074022;28;20459;-66
2021/12/04 06:17:38;;;;;;;0.40;0.40;;;4.70;99.90;;;;;;2074199;28;20581;-66
2021/12/04 06:18:39;;;;;;;0.63;0.50;;;4.70;99.90;;;;;;2074107;28;20194;-66
2021/12/04 06:23:37;;;;;;;0.93;0.70;;;4.70;99.90;;;;;;2074191;28;20201;-66
2021/12/04 06:24:38;;;;;;;0.30;0.30;;;4.70;99.90;;;;;;2074069;28;20192;-66
2021/12/04 06:25:39;;;;;;;0.70;0.57;;;4.70;99.90;;;;;;2074136;28;20601;-66
2021/12/04 06:26:40;;;;;;;0.20;0.20;;;4.80;99.90;;;;;;2073511;28;20181;-65
2021/12/04 06:27:42;;;;;;;0.30;0.30;;;4.80;99.90;;;;;;2073521;28;20189;-66
2021/12/04 06:28:43;;;;;;;0.40;0.40;;;4.80;99.90;;;;;;2073493;28;20212;-66
2021/12/04 06:29:43;;;;;;;0.35;0.35;;;4.90;99.90;;;;;;2073260;28;20201;-66
2021/12/04 06:30:44;;;;;;;0.40;0.40;;;4.90;99.90;;;;;;2073317;28;20240;-66
2021/12/04 06:31:45;;;;;;;0.40;0.40;;;4.80;99.90;;;;;;2074267;28;20685;-66
2021/12/04 06:32:48;;;;;;;0.30;0.30;;;4.80;99.90;;;;;;2073931;28;20174;-66
2021/12/04 06:33:49;;;;;;;1.02;0.40;;;4.80;99.90;;;;;;2074198;28;20220;-66